createdAt,value
2023-05-05T00:00:14.859Z,47.53
2023-05-05T00:00:31.010Z,47.61
2023-05-05T00:00:47.140Z,47.65
2023-05-05T00:01:03.273Z,47.86
2023-05-05T00:01:19.418Z,47.96
2023-05-05T00:01:35.596Z,47.97
2023-05-05T00:01:51.756Z,47.99
2023-05-05T00:02:07.904Z,48.17
2023-05-05T00:02:24.058Z,48
2023-05-05T00:02:40.260Z,47.97
2023-05-05T00:02:56.385Z,48.11
2023-05-05T00:03:12.545Z,48.25
2023-05-05T00:03:28.654Z,48.25
2023-05-05T00:03:44.883Z,48.23
2023-05-05T00:04:00.990Z,48.25
2023-05-05T00:04:17.106Z,48.02
2023-05-05T00:04:33.168Z,48.09
2023-05-05T00:04:49.342Z,48.14
2023-05-05T00:05:05.482Z,48.29
2023-05-05T00:05:21.615Z,48.45
2023-05-05T00:05:37.767Z,48.47
2023-05-05T00:05:53.930Z,48.36
2023-05-05T00:06:10.050Z,48.67
2023-05-05T00:06:26.207Z,48.25
2023-05-05T00:06:42.336Z,48.46
2023-05-05T00:06:58.543Z,48.3
2023-05-05T00:07:14.635Z,48.31
2023-05-05T00:07:30.773Z,48.2
2023-05-05T00:07:46.923Z,48.14
2023-05-05T00:08:03.084Z,48.49
2023-05-05T00:08:19.213Z,48.44
2023-05-05T00:08:35.372Z,48.36
2023-05-05T00:08:51.536Z,48.32
2023-05-05T00:09:07.658Z,48.37
2023-05-05T00:09:23.828Z,48.15
2023-05-05T00:09:39.955Z,48.54
2023-05-05T00:09:56.086Z,48.32
2023-05-05T00:10:12.241Z,48.21
2023-05-05T00:10:28.404Z,48.36
2023-05-05T00:10:44.519Z,48.24
2023-05-05T00:11:00.672Z,48.18
2023-05-05T00:11:16.738Z,48.15
2023-05-05T00:11:32.965Z,48.15
2023-05-05T00:11:49.096Z,48.09
2023-05-05T00:12:05.249Z,48.23
2023-05-05T00:12:21.390Z,48.5
2023-05-05T00:12:37.556Z,48.24
2023-05-05T00:12:53.747Z,48.14
2023-05-05T00:13:09.851Z,48.25
2023-05-05T00:13:26.004Z,48.3
2023-05-05T00:13:42.173Z,48.5
2023-05-05T00:13:58.273Z,48.36
2023-05-05T00:14:14.417Z,48.45
2023-05-05T00:14:30.560Z,48.36
2023-05-05T00:14:46.731Z,48.35
2023-05-05T00:15:02.861Z,48.33
2023-05-05T00:15:18.996Z,48.54
2023-05-05T00:15:35.149Z,48.58
2023-05-05T00:15:51.338Z,48.5
2023-05-05T00:16:07.454Z,48.63
2023-05-05T00:16:23.657Z,48.66
2023-05-05T00:16:39.780Z,48.61
2023-05-05T00:16:55.898Z,48.72
2023-05-05T00:17:12.117Z,48.46
2023-05-05T00:17:28.330Z,48.68
2023-05-05T00:17:44.381Z,48.8
2023-05-05T00:18:00.500Z,48.69
2023-05-05T00:18:16.654Z,48.62
2023-05-05T00:18:32.752Z,48.75
2023-05-05T00:18:48.911Z,48.79
2023-05-05T00:19:05.070Z,48.73
2023-05-05T00:19:21.175Z,48.65
2023-05-05T00:19:37.315Z,48.64
2023-05-05T00:19:53.472Z,48.71
2023-05-05T00:20:25.770Z,48.72
2023-05-05T00:20:41.946Z,48.88
2023-05-05T00:20:58.067Z,48.83
2023-05-05T00:21:14.238Z,48.83
2023-05-05T00:21:30.414Z,48.71
2023-05-05T00:21:46.515Z,49.42
2023-05-05T00:22:02.616Z,49.25
2023-05-05T00:22:18.809Z,49.25
2023-05-05T00:22:34.935Z,49.14
2023-05-05T00:22:51.087Z,48.83
2023-05-05T00:23:18.497Z,48.99
2023-05-05T00:23:34.636Z,48.85
2023-05-05T00:23:50.787Z,48.7
2023-05-05T00:24:06.937Z,49.08
2023-05-05T00:24:23.088Z,48.88
2023-05-05T00:24:39.235Z,48.66
2023-05-05T00:24:55.398Z,48.61
2023-05-05T00:25:11.519Z,48.58
2023-05-05T00:25:27.662Z,48.56
2023-05-05T00:25:43.837Z,48.48
2023-05-05T00:25:59.954Z,48.5
2023-05-05T00:26:16.096Z,48.5
2023-05-05T00:26:32.246Z,48.59
2023-05-05T00:26:48.399Z,48.46
2023-05-05T00:27:04.558Z,48.83
2023-05-05T00:27:20.687Z,48.85
2023-05-05T00:27:38.382Z,48.7
2023-05-05T00:27:53.009Z,48.76
2023-05-05T00:28:09.159Z,48.66
2023-05-05T00:28:25.308Z,48.59
2023-05-05T00:28:41.429Z,48.76
2023-05-05T00:28:57.562Z,48.65
2023-05-05T00:29:13.711Z,48.67
2023-05-05T00:29:29.860Z,48.74
2023-05-05T00:29:45.992Z,48.91
2023-05-05T00:30:02.134Z,49
2023-05-05T00:30:18.275Z,48.85
2023-05-05T00:30:34.455Z,48.92
2023-05-05T00:30:50.627Z,48.89
2023-05-05T00:31:06.745Z,49.05
2023-05-05T00:31:22.884Z,49.09
2023-05-05T00:31:39.097Z,48.88
2023-05-05T00:31:55.153Z,48.95
2023-05-05T00:32:11.337Z,48.8
2023-05-05T00:32:27.482Z,49.01
2023-05-05T00:32:43.683Z,49.2
2023-05-05T00:32:59.753Z,49.33
2023-05-05T00:33:15.888Z,49.09
2023-05-05T00:33:32.044Z,49.19
2023-05-05T00:33:48.165Z,49.19
2023-05-05T00:34:04.328Z,49.4
2023-05-05T00:34:20.471Z,49.48
2023-05-05T00:34:36.603Z,49.48
2023-05-05T00:34:52.746Z,49.53
2023-05-05T00:35:08.914Z,49.68
2023-05-05T00:35:25.048Z,49.68
2023-05-05T00:35:41.191Z,49.47
2023-05-05T00:35:57.356Z,49.46
2023-05-05T00:36:13.472Z,49.38
2023-05-05T00:36:29.637Z,49.32
2023-05-05T00:36:45.759Z,49.44
2023-05-05T00:37:01.909Z,49.7
2023-05-05T00:37:18.113Z,49.8
2023-05-05T00:37:34.222Z,49.74
2023-05-05T00:37:50.367Z,49.74
2023-05-05T00:38:06.425Z,49.74
2023-05-05T00:38:22.652Z,49.7
2023-05-05T00:38:38.814Z,49.88
2023-05-05T00:38:54.928Z,49.86
2023-05-05T00:39:11.114Z,49.69
2023-05-05T00:39:27.229Z,49.6
2023-05-05T00:39:43.378Z,49.75
2023-05-05T00:39:59.514Z,49.66
2023-05-05T00:40:15.653Z,49.75
2023-05-05T00:40:31.841Z,50.11
2023-05-05T00:40:47.950Z,49.96
2023-05-05T00:41:04.102Z,49.74
2023-05-05T00:41:20.237Z,49.85
2023-05-05T00:41:36.394Z,50.14
2023-05-05T00:41:52.549Z,49.94
2023-05-05T00:42:08.698Z,49.89
2023-05-05T00:42:24.857Z,49.91
2023-05-05T00:42:40.955Z,49.77
2023-05-05T00:42:57.116Z,49.72
2023-05-05T00:43:13.263Z,50.06
2023-05-05T00:43:29.405Z,49.87
2023-05-05T00:43:45.562Z,49.78
2023-05-05T00:44:01.750Z,49.85
2023-05-05T00:44:17.847Z,49.85
2023-05-05T00:44:33.992Z,50.16
2023-05-05T00:44:50.050Z,50.03
2023-05-05T00:45:06.287Z,49.92
2023-05-05T00:45:22.419Z,49.81
2023-05-05T00:45:38.627Z,50.14
2023-05-05T00:45:54.629Z,50.17
2023-05-05T00:46:10.906Z,50.1
2023-05-05T00:46:27.095Z,50.07
2023-05-05T00:46:43.220Z,49.9
2023-05-05T00:46:59.322Z,49.88
2023-05-05T00:47:15.480Z,49.95
2023-05-05T00:47:31.625Z,50
2023-05-05T00:47:47.773Z,50.04
2023-05-05T00:48:03.902Z,50.03
2023-05-05T00:48:20.030Z,50.01
2023-05-05T00:48:36.194Z,50.01
2023-05-05T00:48:52.390Z,49.97
2023-05-05T00:49:08.505Z,49.96
2023-05-05T00:49:24.673Z,49.99
2023-05-05T00:49:40.749Z,50.09
2023-05-05T00:49:56.997Z,49.9
2023-05-05T00:50:13.046Z,50.04
2023-05-05T00:50:29.202Z,49.89
2023-05-05T00:50:45.345Z,49.99
2023-05-05T00:51:01.517Z,50.07
2023-05-05T00:51:17.664Z,50.02
2023-05-05T00:51:33.688Z,49.89
2023-05-05T00:51:49.963Z,50.09
2023-05-05T00:52:06.064Z,50.3
2023-05-05T00:52:22.235Z,50.26
2023-05-05T00:52:38.367Z,50.11
2023-05-05T00:52:54.517Z,50.2
2023-05-05T00:53:10.666Z,50.15
2023-05-05T00:53:26.791Z,50.15
2023-05-05T00:53:42.967Z,50.32
2023-05-05T00:53:59.106Z,50.42
2023-05-05T00:54:15.228Z,50.43
2023-05-05T00:54:31.400Z,50.45
2023-05-05T00:54:47.538Z,50.28
2023-05-05T00:55:19.826Z,50.71
2023-05-05T00:55:35.968Z,50.63
2023-05-05T00:55:52.120Z,50.55
2023-05-05T00:56:08.247Z,50.52
2023-05-05T00:56:24.410Z,50.33
2023-05-05T00:56:40.543Z,50.43
2023-05-05T00:56:56.711Z,50.49
2023-05-05T00:57:12.830Z,50.61
2023-05-05T00:57:28.999Z,50.71
2023-05-05T00:57:45.150Z,50.53
2023-05-05T00:58:01.276Z,50.78
2023-05-05T00:58:17.450Z,50.71
2023-05-05T00:58:33.568Z,50.7
2023-05-05T00:58:49.731Z,50.72
2023-05-05T00:59:05.857Z,50.79
2023-05-05T00:59:22.009Z,50.76
2023-05-05T00:59:38.205Z,50.7
2023-05-05T00:59:54.289Z,50.73
2023-05-05T01:00:10.593Z,50.75
2023-05-05T01:00:26.572Z,50.47
2023-05-05T01:00:42.709Z,50.47
2023-05-05T01:00:58.899Z,50.56
2023-05-05T01:01:15.065Z,50.48
2023-05-05T01:01:31.181Z,50.29
2023-05-05T01:01:47.335Z,50.39
2023-05-05T01:02:03.516Z,50.38
2023-05-05T01:02:19.616Z,50.35
2023-05-05T01:02:35.797Z,50.27
2023-05-05T01:02:52.021Z,50.32
2023-05-05T01:03:08.129Z,50.07
2023-05-05T01:03:24.269Z,50.06
2023-05-05T01:03:40.379Z,50.44
2023-05-05T01:03:56.492Z,50.43
2023-05-05T01:04:12.646Z,50.52
2023-05-05T01:04:28.753Z,50.36
2023-05-05T01:04:44.900Z,50.57
2023-05-05T01:05:01.053Z,50.45
2023-05-05T01:05:17.193Z,50.42
2023-05-05T01:05:33.366Z,50.37
2023-05-05T01:05:49.489Z,50.71
2023-05-05T01:06:05.688Z,50.52
2023-05-05T01:06:21.803Z,50.51
2023-05-05T01:06:37.915Z,50.34
2023-05-05T01:06:54.080Z,50.55
2023-05-05T01:07:10.201Z,50.35
2023-05-05T01:07:26.357Z,50.75
2023-05-05T01:07:42.502Z,50.77
2023-05-05T01:07:58.643Z,50.56
2023-05-05T01:08:14.820Z,50.43
2023-05-05T01:08:30.976Z,50.41
2023-05-05T01:08:47.115Z,50.27
2023-05-05T01:09:03.267Z,50.21
2023-05-05T01:09:19.375Z,50.17
2023-05-05T01:09:35.546Z,50.42
2023-05-05T01:09:58.083Z,50.57
2023-05-05T01:10:18.826Z,50.33
2023-05-05T01:10:24.161Z,50.36
2023-05-05T01:10:40.168Z,50.36
2023-05-05T01:10:56.258Z,50.49
2023-05-05T01:11:12.431Z,50.51
2023-05-05T01:11:28.581Z,50.36
2023-05-05T01:11:44.692Z,50.28
2023-05-05T01:12:00.855Z,50.3
2023-05-05T01:12:16.993Z,50.51
2023-05-05T01:12:33.190Z,50.38
2023-05-05T01:12:49.213Z,50.37
2023-05-05T01:13:05.485Z,50.39
2023-05-05T01:13:21.550Z,50.32
2023-05-05T01:13:37.710Z,50.5
2023-05-05T01:13:53.860Z,50.76
2023-05-05T01:14:10.024Z,50.41
2023-05-05T01:14:26.147Z,50.51
2023-05-05T01:14:42.282Z,50.47
2023-05-05T01:14:58.452Z,50.48
2023-05-05T01:15:14.568Z,50.64
2023-05-05T01:15:30.706Z,50.77
2023-05-05T01:15:46.893Z,50.66
2023-05-05T01:16:03.047Z,50.66
2023-05-05T01:16:19.193Z,50.45
2023-05-05T01:16:35.357Z,50.31
2023-05-05T01:16:51.448Z,50.54
2023-05-05T01:17:18.888Z,50.56
2023-05-05T01:17:35.101Z,50.71
2023-05-05T01:17:51.198Z,50.69
2023-05-05T01:18:07.396Z,50.79
2023-05-05T01:18:23.464Z,50.69
2023-05-05T01:18:39.607Z,50.74
2023-05-05T01:18:55.746Z,50.65
2023-05-05T01:19:11.914Z,50.86
2023-05-05T01:19:28.056Z,50.66
2023-05-05T01:19:44.206Z,50.48
2023-05-05T01:20:00.334Z,50.58
2023-05-05T01:20:16.501Z,50.48
2023-05-05T01:20:32.619Z,50.52
2023-05-05T01:20:48.806Z,50.57
2023-05-05T01:21:04.928Z,50.48
2023-05-05T01:21:21.076Z,50.57
2023-05-05T01:21:37.195Z,50.59
2023-05-05T01:21:53.399Z,50.52
2023-05-05T01:22:09.505Z,50.7
2023-05-05T01:22:25.642Z,50.61
2023-05-05T01:22:41.817Z,50.61
2023-05-05T01:22:57.948Z,50.58
2023-05-05T01:23:14.100Z,50.47
2023-05-05T01:23:30.236Z,50.51
2023-05-05T01:23:46.383Z,50.54
2023-05-05T01:24:02.571Z,50.44
2023-05-05T01:24:18.675Z,50.47
2023-05-05T01:24:34.805Z,50.5
2023-05-05T01:24:50.955Z,50.55
2023-05-05T01:25:07.108Z,50.39
2023-05-05T01:25:23.251Z,50.6
2023-05-05T01:25:39.392Z,50.62
2023-05-05T01:25:55.552Z,50.57
2023-05-05T01:26:11.695Z,50.79
2023-05-05T01:26:27.827Z,50.73
2023-05-05T01:26:43.977Z,50.72
2023-05-05T01:27:00.124Z,50.54
2023-05-05T01:27:16.275Z,50.65
2023-05-05T01:27:32.420Z,50.7
2023-05-05T01:27:48.557Z,50.7
2023-05-05T01:28:04.716Z,50.59
2023-05-05T01:28:20.968Z,50.66
2023-05-05T01:28:37.000Z,50.75
2023-05-05T01:28:53.138Z,50.83
2023-05-05T01:29:09.352Z,50.95
2023-05-05T01:29:25.457Z,50.87
2023-05-05T01:29:41.608Z,50.98
2023-05-05T01:29:57.725Z,50.93
2023-05-05T01:30:13.880Z,50.88
2023-05-05T01:30:30.060Z,50.85
2023-05-05T01:30:46.181Z,50.81
2023-05-05T01:31:02.323Z,50.79
2023-05-05T01:31:18.495Z,50.93
2023-05-05T01:31:34.626Z,50.98
2023-05-05T01:31:50.790Z,50.9
2023-05-05T01:32:06.886Z,50.76
2023-05-05T01:32:23.057Z,50.61
2023-05-05T01:32:39.215Z,50.45
2023-05-05T01:32:55.488Z,50.66
2023-05-05T01:33:11.541Z,50.96
2023-05-05T01:33:27.609Z,50.86
2023-05-05T01:33:43.756Z,50.89
2023-05-05T01:33:59.902Z,50.84
2023-05-05T01:34:16.120Z,50.64
2023-05-05T01:34:32.198Z,50.77
2023-05-05T01:34:48.363Z,50.6
2023-05-05T01:35:04.505Z,50.72
2023-05-05T01:35:20.667Z,50.86
2023-05-05T01:35:36.784Z,50.78
2023-05-05T01:35:52.930Z,50.77
2023-05-05T01:36:09.078Z,50.59
2023-05-05T01:36:25.228Z,50.46
2023-05-05T01:36:41.401Z,50.6
2023-05-05T01:36:57.491Z,50.47
2023-05-05T01:37:13.669Z,50.47
2023-05-05T01:37:29.821Z,50.67
2023-05-05T01:37:45.929Z,50.74
2023-05-05T01:38:02.109Z,50.75
2023-05-05T01:38:18.240Z,50.84
2023-05-05T01:38:34.384Z,50.82
2023-05-05T01:38:50.541Z,50.89
2023-05-05T01:39:06.744Z,50.99
2023-05-05T01:39:22.825Z,50.92
2023-05-05T01:39:38.999Z,50.99
2023-05-05T01:39:55.136Z,50.94
2023-05-05T01:40:11.261Z,50.88
2023-05-05T01:40:27.398Z,50.83
2023-05-05T01:40:43.610Z,50.97
2023-05-05T01:40:59.696Z,50.94
2023-05-05T01:41:15.847Z,51
2023-05-05T01:41:31.993Z,51.06
2023-05-05T01:41:48.139Z,51.26
2023-05-05T01:42:04.297Z,51.23
2023-05-05T01:42:20.418Z,50.98
2023-05-05T01:42:36.559Z,50.87
2023-05-05T01:42:52.751Z,50.88
2023-05-05T01:43:08.845Z,51.05
2023-05-05T01:43:24.993Z,51.25
2023-05-05T01:43:41.181Z,51.11
2023-05-05T01:43:57.294Z,51.08
2023-05-05T01:44:13.460Z,51.16
2023-05-05T01:44:29.600Z,51.14
2023-05-05T01:44:45.773Z,51.07
2023-05-05T01:45:01.901Z,51.09
2023-05-05T01:45:18.023Z,51.09
2023-05-05T01:45:34.197Z,51.25
2023-05-05T01:45:50.328Z,51.1
2023-05-05T01:46:06.553Z,50.9
2023-05-05T01:46:22.810Z,50.86
2023-05-05T01:46:38.742Z,50.93
2023-05-05T01:46:54.882Z,51.28
2023-05-05T01:47:11.057Z,51.12
2023-05-05T01:47:27.164Z,50.83
2023-05-05T01:47:43.333Z,51.03
2023-05-05T01:47:59.542Z,51.07
2023-05-05T01:48:15.626Z,51.05
2023-05-05T01:48:31.763Z,50.97
2023-05-05T01:48:47.905Z,51.05
2023-05-05T01:49:04.091Z,51.06
2023-05-05T01:49:20.241Z,51.17
2023-05-05T01:49:36.368Z,51.27
2023-05-05T01:49:52.496Z,51.14
2023-05-05T01:50:09.060Z,51.27
2023-05-05T01:50:24.812Z,51.1
2023-05-05T01:50:40.937Z,51.04
2023-05-05T01:50:57.066Z,51
2023-05-05T01:51:13.218Z,51.22
2023-05-05T01:51:29.352Z,51.13
2023-05-05T01:51:45.530Z,51.13
2023-05-05T01:52:01.684Z,51.05
2023-05-05T01:52:17.811Z,51.07
2023-05-05T01:52:33.954Z,50.94
2023-05-05T01:52:50.102Z,50.82
2023-05-05T01:53:06.246Z,50.72
2023-05-05T01:53:22.382Z,50.84
2023-05-05T01:53:38.563Z,50.84
2023-05-05T01:53:54.682Z,50.85
2023-05-05T01:54:10.814Z,51.02
2023-05-05T01:54:26.973Z,50.73
2023-05-05T01:54:43.114Z,50.7
2023-05-05T01:54:59.270Z,50.77
2023-05-05T01:55:15.406Z,50.68
2023-05-05T01:55:31.545Z,50.86
2023-05-05T01:55:47.703Z,50.85
2023-05-05T01:56:03.838Z,50.76
2023-05-05T01:56:19.980Z,50.65
2023-05-05T01:56:36.143Z,50.71
2023-05-05T01:56:52.291Z,50.72
2023-05-05T01:57:08.423Z,50.62
2023-05-05T01:57:24.575Z,50.77
2023-05-05T01:57:40.725Z,50.72
2023-05-05T01:57:56.877Z,50.62
2023-05-05T01:58:13.008Z,50.56
2023-05-05T01:58:29.145Z,50.52
2023-05-05T01:58:45.288Z,50.49
2023-05-05T01:59:01.464Z,50.62
2023-05-05T01:59:17.587Z,50.65
2023-05-05T01:59:33.721Z,50.84
2023-05-05T01:59:49.868Z,50.74
2023-05-05T02:00:06.264Z,51
2023-05-05T02:00:22.158Z,50.75
2023-05-05T02:00:38.313Z,50.82
2023-05-05T02:00:54.515Z,50.72
2023-05-05T02:01:10.670Z,50.68
2023-05-05T02:01:26.881Z,50.57
2023-05-05T02:01:42.931Z,50.64
2023-05-05T02:01:59.063Z,50.42
2023-05-05T02:02:15.176Z,50.39
2023-05-05T02:02:31.473Z,50.43
2023-05-05T02:02:47.600Z,50.34
2023-05-05T02:03:03.751Z,50.32
2023-05-05T02:03:20.012Z,50.29
2023-05-05T02:03:35.942Z,50.62
2023-05-05T02:03:52.059Z,50.5
2023-05-05T02:04:08.220Z,50.75
2023-05-05T02:04:24.362Z,50.63
2023-05-05T02:04:40.489Z,50.61
2023-05-05T02:04:56.626Z,50.39
2023-05-05T02:05:12.770Z,50.4
2023-05-05T02:05:28.961Z,50.63
2023-05-05T02:05:45.068Z,50.54
2023-05-05T02:06:01.243Z,50.47
2023-05-05T02:06:17.372Z,50.57
2023-05-05T02:06:33.512Z,50.48
2023-05-05T02:06:49.658Z,50.33
2023-05-05T02:07:05.831Z,50.52
2023-05-05T02:07:21.946Z,50.58
2023-05-05T02:07:38.086Z,50.65
2023-05-05T02:07:54.242Z,50.58
2023-05-05T02:08:10.379Z,50.57
2023-05-05T02:08:26.573Z,50.59
2023-05-05T02:08:42.708Z,50.86
2023-05-05T02:08:58.916Z,50.64
2023-05-05T02:09:14.983Z,50.56
2023-05-05T02:09:31.111Z,50.47
2023-05-05T02:09:47.270Z,50.58
2023-05-05T02:10:03.392Z,50.81
2023-05-05T02:10:19.541Z,50.58
2023-05-05T02:10:35.689Z,50.84
2023-05-05T02:10:51.835Z,50.53
2023-05-05T02:11:19.309Z,50.57
2023-05-05T02:11:35.447Z,50.59
2023-05-05T02:11:51.562Z,50.69
2023-05-05T02:12:07.732Z,50.61
2023-05-05T02:12:23.833Z,50.75
2023-05-05T02:12:40.106Z,50.88
2023-05-05T02:12:56.154Z,50.96
2023-05-05T02:13:12.374Z,50.69
2023-05-05T02:13:28.449Z,50.66
2023-05-05T02:13:44.606Z,50.85
2023-05-05T02:14:00.759Z,50.7
2023-05-05T02:14:16.891Z,50.76
2023-05-05T02:14:33.018Z,50.76
2023-05-05T02:14:49.167Z,50.72
2023-05-05T02:15:05.310Z,50.67
2023-05-05T02:15:21.456Z,50.71
2023-05-05T02:15:37.605Z,50.7
2023-05-05T02:15:53.755Z,50.91
2023-05-05T02:16:09.918Z,50.73
2023-05-05T02:16:26.036Z,50.85
2023-05-05T02:16:42.194Z,50.85
2023-05-05T02:16:58.374Z,50.7
2023-05-05T02:17:14.458Z,50.81
2023-05-05T02:17:30.625Z,50.93
2023-05-05T02:17:46.767Z,50.77
2023-05-05T02:18:02.989Z,50.86
2023-05-05T02:18:19.069Z,50.67
2023-05-05T02:18:35.216Z,50.85
2023-05-05T02:18:51.369Z,50.87
2023-05-05T02:19:07.508Z,50.88
2023-05-05T02:19:23.640Z,50.78
2023-05-05T02:19:39.804Z,50.61
2023-05-05T02:19:55.935Z,50.82
2023-05-05T02:20:12.091Z,51.18
2023-05-05T02:20:28.231Z,50.73
2023-05-05T02:20:44.366Z,50.83
2023-05-05T02:21:00.525Z,50.87
2023-05-05T02:21:16.582Z,50.8
2023-05-05T02:21:32.796Z,50.83
2023-05-05T02:21:48.961Z,50.99
2023-05-05T02:22:05.121Z,50.82
2023-05-05T02:22:21.270Z,50.9
2023-05-05T02:22:37.384Z,50.83
2023-05-05T02:22:53.587Z,50.95
2023-05-05T02:23:09.696Z,50.86
2023-05-05T02:23:25.858Z,50.78
2023-05-05T02:23:41.957Z,50.89
2023-05-05T02:23:58.139Z,51
2023-05-05T02:24:14.290Z,51.03
2023-05-05T02:24:30.390Z,50.99
2023-05-05T02:24:46.560Z,50.9
2023-05-05T02:25:02.716Z,50.81
2023-05-05T02:25:18.850Z,50.96
2023-05-05T02:25:34.989Z,50.78
2023-05-05T02:25:51.149Z,51.15
2023-05-05T02:26:07.276Z,50.97
2023-05-05T02:26:23.432Z,50.9
2023-05-05T02:26:39.595Z,50.91
2023-05-05T02:26:55.718Z,51.03
2023-05-05T02:27:11.863Z,50.91
2023-05-05T02:27:28.024Z,50.8
2023-05-05T02:27:44.158Z,50.99
2023-05-05T02:28:00.300Z,50.74
2023-05-05T02:28:16.447Z,50.68
2023-05-05T02:28:32.592Z,50.7
2023-05-05T02:28:48.758Z,50.65
2023-05-05T02:29:04.804Z,50.6
2023-05-05T02:29:21.014Z,50.95
2023-05-05T02:29:37.182Z,50.83
2023-05-05T02:29:53.358Z,50.86
2023-05-05T02:30:09.741Z,50.84
2023-05-05T02:30:25.617Z,50.77
2023-05-05T02:30:58.010Z,51.04
2023-05-05T02:31:14.106Z,50.85
2023-05-05T02:31:30.274Z,50.8
2023-05-05T02:31:46.414Z,50.85
2023-05-05T02:32:02.485Z,50.91
2023-05-05T02:32:18.666Z,51.04
2023-05-05T02:32:34.803Z,50.95
2023-05-05T02:32:50.991Z,50.86
2023-05-05T02:33:07.084Z,50.88
2023-05-05T02:33:23.205Z,50.93
2023-05-05T02:33:39.363Z,50.71
2023-05-05T02:33:55.495Z,50.68
2023-05-05T02:34:11.646Z,50.59
2023-05-05T02:34:27.792Z,50.77
2023-05-05T02:34:43.944Z,50.91
2023-05-05T02:35:00.083Z,51.01
2023-05-05T02:35:16.246Z,51
2023-05-05T02:35:32.381Z,51.13
2023-05-05T02:35:48.426Z,51.23
2023-05-05T02:36:04.700Z,50.79
2023-05-05T02:36:20.806Z,50.76
2023-05-05T02:36:36.955Z,50.96
2023-05-05T02:36:53.096Z,50.98
2023-05-05T02:37:09.262Z,50.96
2023-05-05T02:37:25.414Z,51.09
2023-05-05T02:37:41.539Z,51.05
2023-05-05T02:37:57.681Z,50.85
2023-05-05T02:38:13.829Z,50.94
2023-05-05T02:38:29.977Z,50.98
2023-05-05T02:38:46.145Z,50.92
2023-05-05T02:39:02.266Z,50.91
2023-05-05T02:39:18.432Z,51.2
2023-05-05T02:39:34.566Z,50.89
2023-05-05T02:39:50.744Z,50.78
2023-05-05T02:40:07.081Z,50.73
2023-05-05T02:40:23.010Z,50.9
2023-05-05T02:40:39.133Z,50.96
2023-05-05T02:40:55.308Z,50.99
2023-05-05T02:41:11.412Z,50.93
2023-05-05T02:41:27.577Z,51
2023-05-05T02:41:43.725Z,50.92
2023-05-05T02:41:59.888Z,51.07
2023-05-05T02:42:16.016Z,51.4
2023-05-05T02:42:32.220Z,51.1
2023-05-05T02:42:48.312Z,50.82
2023-05-05T02:43:04.476Z,51.05
2023-05-05T02:43:20.661Z,51
2023-05-05T02:43:36.669Z,50.94
2023-05-05T02:43:52.906Z,50.96
2023-05-05T02:44:09.038Z,51.03
2023-05-05T02:44:25.158Z,51.06
2023-05-05T02:44:41.319Z,51.11
2023-05-05T02:44:57.467Z,50.9
2023-05-05T02:45:13.609Z,51.13
2023-05-05T02:45:29.761Z,51.15
2023-05-05T02:45:45.907Z,51.05
2023-05-05T02:46:02.144Z,50.92
2023-05-05T02:46:18.227Z,51.1
2023-05-05T02:46:34.428Z,51.1
2023-05-05T02:46:50.543Z,51.19
2023-05-05T02:47:06.653Z,50.98
2023-05-05T02:47:22.815Z,51.24
2023-05-05T02:47:39.012Z,51.23
2023-05-05T02:47:55.139Z,51.11
2023-05-05T02:48:11.231Z,51
2023-05-05T02:48:27.388Z,50.88
2023-05-05T02:48:43.499Z,50.97
2023-05-05T02:48:59.655Z,51.19
2023-05-05T02:49:15.709Z,51.03
2023-05-05T02:49:31.950Z,51.11
2023-05-05T02:49:48.106Z,51.09
2023-05-05T02:50:04.227Z,51.07
2023-05-05T02:50:20.431Z,51.41
2023-05-05T02:50:36.525Z,51.28
2023-05-05T02:50:52.675Z,51.31
2023-05-05T02:51:08.812Z,51.2
2023-05-05T02:51:24.953Z,51.39
2023-05-05T02:51:41.102Z,51.41
2023-05-05T02:51:57.258Z,51.53
2023-05-05T02:52:13.378Z,51.51
2023-05-05T02:52:29.539Z,51.64
2023-05-05T02:52:45.712Z,51.51
2023-05-05T02:53:01.841Z,51.45
2023-05-05T02:53:17.992Z,51.65
2023-05-05T02:53:34.110Z,51.49
2023-05-05T02:53:50.269Z,51.46
2023-05-05T02:54:06.446Z,51.58
2023-05-05T02:54:22.547Z,51.47
2023-05-05T02:54:38.726Z,51.39
2023-05-05T02:54:54.850Z,51.37
2023-05-05T02:55:11.021Z,51.38
2023-05-05T02:55:27.174Z,51.27
2023-05-05T02:55:43.273Z,51.47
2023-05-05T02:55:59.447Z,51.29
2023-05-05T02:56:15.621Z,51.37
2023-05-05T02:56:31.759Z,51.42
2023-05-05T02:56:47.892Z,51.25
2023-05-05T02:57:03.943Z,51.25
2023-05-05T02:57:20.151Z,51.35
2023-05-05T02:57:36.289Z,51.57
2023-05-05T02:57:52.451Z,51.48
2023-05-05T02:58:08.593Z,51.6
2023-05-05T02:58:24.732Z,51.61
2023-05-05T02:58:40.899Z,51.57
2023-05-05T02:58:57.026Z,51.47
2023-05-05T02:59:15.877Z,51.39
2023-05-05T02:59:29.317Z,51.49
2023-05-05T02:59:45.470Z,51.59
2023-05-05T03:00:01.654Z,51.61
2023-05-05T03:00:17.754Z,51.56
2023-05-05T03:00:33.889Z,51.68
2023-05-05T03:00:50.074Z,51.86
2023-05-05T03:01:06.224Z,51.89
2023-05-05T03:01:22.381Z,51.63
2023-05-05T03:01:38.542Z,51.5
2023-05-05T03:01:54.732Z,51.53
2023-05-05T03:02:10.774Z,51.72
2023-05-05T03:02:27.016Z,51.48
2023-05-05T03:02:43.213Z,51.48
2023-05-05T03:02:59.304Z,51.72
2023-05-05T03:03:15.396Z,51.75
2023-05-05T03:03:31.593Z,51.57
2023-05-05T03:03:47.753Z,51.5
2023-05-05T03:04:03.820Z,51.62
2023-05-05T03:04:36.098Z,51.76
2023-05-05T03:04:52.156Z,51.75
2023-05-05T03:05:19.659Z,51.66
2023-05-05T03:05:35.838Z,51.84
2023-05-05T03:05:51.957Z,51.87
2023-05-05T03:06:08.099Z,51.91
2023-05-05T03:06:24.237Z,52
2023-05-05T03:06:40.383Z,51.9
2023-05-05T03:06:56.540Z,51.88
2023-05-05T03:07:12.675Z,52.16
2023-05-05T03:07:28.818Z,52.07
2023-05-05T03:07:45.006Z,51.96
2023-05-05T03:08:01.141Z,51.82
2023-05-05T03:08:17.268Z,51.76
2023-05-05T03:08:33.458Z,52.03
2023-05-05T03:08:49.553Z,51.97
2023-05-05T03:09:05.754Z,52.04
2023-05-05T03:09:21.776Z,52.01
2023-05-05T03:09:38.007Z,52.07
2023-05-05T03:09:54.145Z,52.24
2023-05-05T03:10:10.384Z,52.34
2023-05-05T03:10:26.427Z,52.18
2023-05-05T03:10:42.612Z,52.1
2023-05-05T03:10:58.728Z,52.4
2023-05-05T03:11:14.867Z,52.27
2023-05-05T03:11:31.005Z,52.15
2023-05-05T03:11:47.190Z,52.25
2023-05-05T03:12:03.363Z,52.32
2023-05-05T03:12:19.441Z,52.38
2023-05-05T03:12:35.626Z,52.29
2023-05-05T03:12:51.766Z,52.33
2023-05-05T03:13:08.020Z,52.27
2023-05-05T03:13:24.022Z,52.09
2023-05-05T03:13:40.191Z,52.06
2023-05-05T03:13:56.322Z,52.02
2023-05-05T03:14:12.468Z,52.15
2023-05-05T03:14:29.578Z,52.31
2023-05-05T03:14:44.775Z,52.32
2023-05-05T03:15:00.921Z,52.32
2023-05-05T03:15:17.048Z,52.43
2023-05-05T03:15:33.190Z,52.24
2023-05-05T03:15:49.331Z,52.25
2023-05-05T03:16:05.536Z,52.37
2023-05-05T03:16:21.679Z,52.2
2023-05-05T03:16:37.873Z,52.02
2023-05-05T03:16:53.945Z,52.22
2023-05-05T03:17:09.994Z,52.55
2023-05-05T03:17:26.228Z,52.07
2023-05-05T03:17:42.382Z,52.1
2023-05-05T03:17:58.543Z,52.21
2023-05-05T03:18:14.656Z,52.16
2023-05-05T03:18:30.778Z,52.08
2023-05-05T03:18:46.969Z,52.15
2023-05-05T03:19:03.095Z,52.16
2023-05-05T03:19:19.258Z,52.28
2023-05-05T03:19:35.398Z,52.23
2023-05-05T03:19:51.511Z,52.13
2023-05-05T03:20:07.978Z,52.19
2023-05-05T03:20:23.827Z,52.13
2023-05-05T03:20:39.976Z,52.16
2023-05-05T03:20:56.101Z,52.08
2023-05-05T03:21:12.258Z,52.22
2023-05-05T03:21:28.395Z,52.06
2023-05-05T03:21:44.547Z,52.16
2023-05-05T03:22:00.690Z,52.06
2023-05-05T03:22:16.831Z,52.01
2023-05-05T03:22:33.004Z,52
2023-05-05T03:22:49.130Z,51.97
2023-05-05T03:23:05.262Z,52.04
2023-05-05T03:23:21.402Z,52.04
2023-05-05T03:23:37.568Z,51.98
2023-05-05T03:23:53.616Z,51.98
2023-05-05T03:24:09.877Z,52.07
2023-05-05T03:24:26.028Z,51.97
2023-05-05T03:24:42.145Z,51.94
2023-05-05T03:24:58.323Z,52.16
2023-05-05T03:25:14.427Z,52.15
2023-05-05T03:25:30.581Z,52.12
2023-05-05T03:25:46.761Z,52.14
2023-05-05T03:26:02.855Z,52.1
2023-05-05T03:26:19.032Z,52.16
2023-05-05T03:26:35.155Z,52.07
2023-05-05T03:26:51.309Z,52.27
2023-05-05T03:27:07.457Z,52.29
2023-05-05T03:27:23.613Z,52.4
2023-05-05T03:27:39.737Z,52.32
2023-05-05T03:27:55.886Z,52.45
2023-05-05T03:28:12.071Z,52.23
2023-05-05T03:28:28.172Z,52.32
2023-05-05T03:28:44.346Z,52.3
2023-05-05T03:29:00.464Z,52.33
2023-05-05T03:29:16.660Z,52.44
2023-05-05T03:29:32.766Z,52.44
2023-05-05T03:29:48.963Z,52.3
2023-05-05T03:30:05.140Z,52.16
2023-05-05T03:30:21.191Z,52.28
2023-05-05T03:30:37.345Z,52.13
2023-05-05T03:30:53.506Z,52.19